sensor_id;sensor_type;location;lat;lon;timestamp;P1;durP1;ratioP1;P2;durP2;ratioP2
5483;SDS011;2764;48.794;8.326;2023-01-25T00:00:46;30.45;;;20.00;;
5483;SDS011;2764;48.794;8.326;2023-01-25T00:01:48;32.90;;;21.30;;
5483;SDS011;2764;48.794;8.326;2023-01-25T00:02:51;31.48;;;20.10;;
5483;SDS011;2764;48.794;8.326;2023-01-25T00:03:56;31.70;;;20.40;;
5483;SDS011;2764;48.794;8.326;2023-01-25T00:04:59;28.95;;;20.23;;
5483;SDS011;2764;48.794;8.326;2023-01-25T00:06:01;33.13;;;21.63;;
5483;SDS011;2764;48.794;8.326;2023-01-25T00:07:05;32.38;;;20.40;;
5483;SDS011;2764;48.794;8.326;2023-01-25T00:08:07;33.25;;;21.92;;
5483;SDS011;2764;48.794;8.326;2023-01-25T00:09:09;34.40;;;20.42;;
5483;SDS011;2764;48.794;8.326;2023-01-25T00:10:12;31.05;;;21.00;;
5483;SDS011;2764;48.794;8.326;2023-01-25T00:11:14;28.27;;;19.95;;
5483;SDS011;2764;48.794;8.326;2023-01-25T00:12:17;30.95;;;21.55;;
5483;SDS011;2764;48.794;8.326;2023-01-25T00:13:19;27.80;;;19.08;;
5483;SDS011;2764;48.794;8.326;2023-01-25T00:14:20;32.25;;;19.88;;
5483;SDS011;2764;48.794;8.326;2023-01-25T00:15:23;28.25;;;18.50;;
5483;SDS011;2764;48.794;8.326;2023-01-25T00:16:25;28.75;;;18.83;;
5483;SDS011;2764;48.794;8.326;2023-01-25T00:17:27;31.98;;;20.65;;
5483;SDS011;2764;48.794;8.326;2023-01-25T00:18:29;25.35;;;19.13;;
5483;SDS011;2764;48.794;8.326;2023-01-25T00:19:31;30.35;;;21.15;;
5483;SDS011;2764;48.794;8.326;2023-01-25T00:20:34;28.45;;;19.75;;
5483;SDS011;2764;48.794;8.326;2023-01-25T00:21:36;28.80;;;20.10;;
5483;SDS011;2764;48.794;8.326;2023-01-25T00:22:38;28.52;;;19.88;;
5483;SDS011;2764;48.794;8.326;2023-01-25T00:23:40;29.77;;;18.98;;
5483;SDS011;2764;48.794;8.326;2023-01-25T00:24:42;30.77;;;20.08;;
5483;SDS011;2764;48.794;8.326;2023-01-25T00:25:45;28.27;;;18.50;;
5483;SDS011;2764;48.794;8.326;2023-01-25T00:26:47;27.20;;;19.02;;
5483;SDS011;2764;48.794;8.326;2023-01-25T00:27:49;31.50;;;21.40;;
5483;SDS011;2764;48.794;8.326;2023-01-25T00:28:52;28.52;;;20.08;;
5483;SDS011;2764;48.794;8.326;2023-01-25T00:29:55;26.77;;;19.65;;
5483;SDS011;2764;48.794;8.326;2023-01-25T00:30:58;26.85;;;19.55;;
5483;SDS011;2764;48.794;8.326;2023-01-25T00:32:26;33.47;;;21.00;;
5483;SDS011;2764;48.794;8.326;2023-01-25T00:33:47;31.15;;;21.05;;
5483;SDS011;2764;48.794;8.326;2023-01-25T00:34:52;26.75;;;20.88;;
5483;SDS011;2764;48.794;8.326;2023-01-25T00:35:55;26.88;;;18.73;;
5483;SDS011;2764;48.794;8.326;2023-01-25T00:38:05;29.63;;;20.00;;
5483;SDS011;2764;48.794;8.326;2023-01-25T00:39:28;33.28;;;21.27;;
5483;SDS011;2764;48.794;8.326;2023-01-25T00:40:30;34.83;;;22.00;;
5483;SDS011;2764;48.794;8.326;2023-01-25T00:41:31;31.00;;;20.10;;
5483;SDS011;2764;48.794;8.326;2023-01-25T00:42:33;25.88;;;18.98;;
5483;SDS011;2764;48.794;8.326;2023-01-25T00:43:35;28.67;;;19.65;;
5483;SDS011;2764;48.794;8.326;2023-01-25T00:44:37;31.15;;;20.63;;
5483;SDS011;2764;48.794;8.326;2023-01-25T00:45:39;33.78;;;20.25;;
5483;SDS011;2764;48.794;8.326;2023-01-25T00:46:41;31.15;;;19.63;;
5483;SDS011;2764;48.794;8.326;2023-01-25T00:47:43;30.30;;;20.50;;
5483;SDS011;2764;48.794;8.326;2023-01-25T00:48:45;31.45;;;19.95;;
5483;SDS011;2764;48.794;8.326;2023-01-25T00:49:47;31.55;;;19.67;;
5483;SDS011;2764;48.794;8.326;2023-01-25T00:50:50;28.58;;;20.45;;
5483;SDS011;2764;48.794;8.326;2023-01-25T00:51:54;28.90;;;21.08;;
5483;SDS011;2764;48.794;8.326;2023-01-25T00:52:58;31.17;;;21.20;;
5483;SDS011;2764;48.794;8.326;2023-01-25T00:54:01;27.75;;;20.08;;
5483;SDS011;2764;48.794;8.326;2023-01-25T00:55:03;25.45;;;18.45;;
5483;SDS011;2764;48.794;8.326;2023-01-25T00:56:06;30.17;;;19.67;;
5483;SDS011;2764;48.794;8.326;2023-01-25T00:57:08;30.95;;;20.27;;
5483;SDS011;2764;48.794;8.326;2023-01-25T00:58:10;26.67;;;19.45;;
5483;SDS011;2764;48.794;8.326;2023-01-25T00:59:12;31.40;;;20.95;;
5483;SDS011;2764;48.794;8.326;2023-01-25T01:00:16;30.10;;;20.40;;
5483;SDS011;2764;48.794;8.326;2023-01-25T01:01:17;35.15;;;20.80;;
5483;SDS011;2764;48.794;8.326;2023-01-25T01:02:19;30.58;;;19.63;;
5483;SDS011;2764;48.794;8.326;2023-01-25T01:03:21;31.23;;;19.90;;
5483;SDS011;2764;48.794;8.326;2023-01-25T01:04:24;26.00;;;19.38;;
5483;SDS011;2764;48.794;8.326;2023-01-25T01:05:27;32.78;;;21.88;;
5483;SDS011;2764;48.794;8.326;2023-01-25T01:06:29;33.13;;;20.05;;
5483;SDS011;2764;48.794;8.326;2023-01-25T01:07:31;27.52;;;19.98;;
5483;SDS011;2764;48.794;8.326;2023-01-25T01:08:34;28.30;;;19.27;;
5483;SDS011;2764;48.794;8.326;2023-01-25T01:09:38;26.38;;;19.13;;
5483;SDS011;2764;48.794;8.326;2023-01-25T01:10:40;26.42;;;18.42;;
5483;SDS011;2764;48.794;8.326;2023-01-25T01:11:42;29.50;;;20.00;;
5483;SDS011;2764;48.794;8.326;2023-01-25T01:12:45;29.30;;;18.75;;
5483;SDS011;2764;48.794;8.326;2023-01-25T01:13:46;28.42;;;18.52;;
5483;SDS011;2764;48.794;8.326;2023-01-25T01:14:48;33.03;;;19.83;;
5483;SDS011;2764;48.794;8.326;2023-01-25T01:15:50;30.77;;;21.42;;
5483;SDS011;2764;48.794;8.326;2023-01-25T01:16:52;30.98;;;19.60;;
5483;SDS011;2764;48.794;8.326;2023-01-25T01:17:59;26.55;;;18.92;;
5483;SDS011;2764;48.794;8.326;2023-01-25T01:19:01;28.95;;;20.48;;
5483;SDS011;2764;48.794;8.326;2023-01-25T01:20:08;30.00;;;19.92;;
5483;SDS011;2764;48.794;8.326;2023-01-25T01:21:11;30.88;;;22.20;;
5483;SDS011;2764;48.794;8.326;2023-01-25T01:22:17;29.67;;;19.90;;
5483;SDS011;2764;48.794;8.326;2023-01-25T01:23:19;29.70;;;20.85;;
5483;SDS011;2764;48.794;8.326;2023-01-25T01:24:23;28.02;;;20.88;;
5483;SDS011;2764;48.794;8.326;2023-01-25T01:25:25;31.17;;;21.00;;
5483;SDS011;2764;48.794;8.326;2023-01-25T01:26:27;23.30;;;15.93;;
5483;SDS011;2764;48.794;8.326;2023-01-25T01:27:29;23.20;;;17.20;;
5483;SDS011;2764;48.794;8.326;2023-01-25T01:28:32;25.98;;;18.98;;
5483;SDS011;2764;48.794;8.326;2023-01-25T01:29:35;32.13;;;21.38;;
5483;SDS011;2764;48.794;8.326;2023-01-25T01:30:37;32.28;;;21.05;;
5483;SDS011;2764;48.794;8.326;2023-01-25T01:31:40;30.50;;;19.85;;
5483;SDS011;2764;48.794;8.326;2023-01-25T01:32:42;33.65;;;19.60;;
5483;SDS011;2764;48.794;8.326;2023-01-25T01:33:47;25.70;;;18.23;;
5483;SDS011;2764;48.794;8.326;2023-01-25T01:34:53;25.67;;;18.27;;
5483;SDS011;2764;48.794;8.326;2023-01-25T01:35:55;26.02;;;17.20;;
5483;SDS011;2764;48.794;8.326;2023-01-25T01:36:57;24.13;;;17.98;;
5483;SDS011;2764;48.794;8.326;2023-01-25T01:37:59;25.50;;;17.98;;
5483;SDS011;2764;48.794;8.326;2023-01-25T01:39:01;25.70;;;19.00;;
5483;SDS011;2764;48.794;8.326;2023-01-25T01:40:05;30.67;;;19.80;;
5483;SDS011;2764;48.794;8.326;2023-01-25T01:41:08;25.95;;;18.45;;
5483;SDS011;2764;48.794;8.326;2023-01-25T01:42:10;27.90;;;19.80;;
5483;SDS011;2764;48.794;8.326;2023-01-25T01:43:19;26.02;;;19.20;;
5483;SDS011;2764;48.794;8.326;2023-01-25T01:45:51;31.70;;;20.35;;
5483;SDS011;2764;48.794;8.326;2023-01-25T01:46:55;28.00;;;19.27;;
5483;SDS011;2764;48.794;8.326;2023-01-25T01:47:59;32.40;;;20.33;;
5483;SDS011;2764;48.794;8.326;2023-01-25T01:50:29;25.50;;;18.33;;
5483;SDS011;2764;48.794;8.326;2023-01-25T01:52:55;24.13;;;16.98;;
5483;SDS011;2764;48.794;8.326;2023-01-25T01:53:59;24.02;;;18.48;;
5483;SDS011;2764;48.794;8.326;2023-01-25T01:55:09;24.70;;;18.95;;
5483;SDS011;2764;48.794;8.326;2023-01-25T01:56:18;33.15;;;20.77;;
5483;SDS011;2764;48.794;8.326;2023-01-25T01:57:25;33.20;;;21.33;;
5483;SDS011;2764;48.794;8.326;2023-01-25T01:58:33;28.30;;;19.80;;
5483;SDS011;2764;48.794;8.326;2023-01-25T02:00:41;23.55;;;18.50;;
5483;SDS011;2764;48.794;8.326;2023-01-25T02:01:43;27.58;;;19.25;;
5483;SDS011;2764;48.794;8.326;2023-01-25T02:02:46;23.85;;;18.23;;
5483;SDS011;2764;48.794;8.326;2023-01-25T02:03:50;24.75;;;18.45;;
5483;SDS011;2764;48.794;8.326;2023-01-25T02:04:52;30.20;;;19.85;;
5483;SDS011;2764;48.794;8.326;2023-01-25T02:06:01;28.55;;;18.65;;
5483;SDS011;2764;48.794;8.326;2023-01-25T02:07:20;29.77;;;20.58;;
5483;SDS011;2764;48.794;8.326;2023-01-25T02:08:29;28.38;;;19.98;;
5483;SDS011;2764;48.794;8.326;2023-01-25T02:09:34;29.98;;;20.33;;
5483;SDS011;2764;48.794;8.326;2023-01-25T02:10:36;32.15;;;21.08;;
5483;SDS011;2764;48.794;8.326;2023-01-25T02:11:39;33.40;;;23.10;;
5483;SDS011;2764;48.794;8.326;2023-01-25T02:12:42;36.03;;;22.02;;
5483;SDS011;2764;48.794;8.326;2023-01-25T02:13:46;29.23;;;20.70;;
5483;SDS011;2764;48.794;8.326;2023-01-25T02:14:49;26.35;;;19.00;;
5483;SDS011;2764;48.794;8.326;2023-01-25T02:15:53;28.13;;;19.90;;
5483;SDS011;2764;48.794;8.326;2023-01-25T02:16:56;30.17;;;19.52;;
5483;SDS011;2764;48.794;8.326;2023-01-25T02:17:59;29.80;;;21.13;;
5483;SDS011;2764;48.794;8.326;2023-01-25T02:19:01;29.50;;;20.98;;
5483;SDS011;2764;48.794;8.326;2023-01-25T02:21:31;27.00;;;19.25;;
5483;SDS011;2764;48.794;8.326;2023-01-25T02:23:57;28.00;;;19.15;;
5483;SDS011;2764;48.794;8.326;2023-01-25T02:25:06;40.60;;;22.65;;
5483;SDS011;2764;48.794;8.326;2023-01-25T02:26:12;28.20;;;20.02;;
5483;SDS011;2764;48.794;8.326;2023-01-25T02:27:16;31.73;;;21.73;;
5483;SDS011;2764;48.794;8.326;2023-01-25T02:29:36;34.47;;;23.70;;
5483;SDS011;2764;48.794;8.326;2023-01-25T02:30:40;36.40;;;24.33;;
5483;SDS011;2764;48.794;8.326;2023-01-25T02:31:43;35.22;;;22.95;;
5483;SDS011;2764;48.794;8.326;2023-01-25T02:32:46;37.03;;;24.40;;
5483;SDS011;2764;48.794;8.326;2023-01-25T02:33:48;35.13;;;23.92;;
5483;SDS011;2764;48.794;8.326;2023-01-25T02:34:50;36.65;;;23.70;;
5483;SDS011;2764;48.794;8.326;2023-01-25T02:35:57;37.38;;;25.10;;
5483;SDS011;2764;48.794;8.326;2023-01-25T02:37:14;34.25;;;24.52;;
5483;SDS011;2764;48.794;8.326;2023-01-25T02:38:17;35.50;;;23.60;;
5483;SDS011;2764;48.794;8.326;2023-01-25T02:39:21;35.10;;;24.00;;
5483;SDS011;2764;48.794;8.326;2023-01-25T02:40:26;39.38;;;24.98;;
5483;SDS011;2764;48.794;8.326;2023-01-25T02:42:34;32.40;;;22.58;;
5483;SDS011;2764;48.794;8.326;2023-01-25T02:43:37;32.40;;;22.77;;
5483;SDS011;2764;48.794;8.326;2023-01-25T02:44:39;32.10;;;21.80;;
5483;SDS011;2764;48.794;8.326;2023-01-25T02:45:46;35.67;;;22.45;;
5483;SDS011;2764;48.794;8.326;2023-01-25T02:46:52;36.63;;;23.98;;
5483;SDS011;2764;48.794;8.326;2023-01-25T02:47:56;33.13;;;22.92;;
5483;SDS011;2764;48.794;8.326;2023-01-25T02:48:58;35.60;;;23.20;;
5483;SDS011;2764;48.794;8.326;2023-01-25T02:50:01;35.45;;;22.55;;
5483;SDS011;2764;48.794;8.326;2023-01-25T02:51:05;31.92;;;21.25;;
5483;SDS011;2764;48.794;8.326;2023-01-25T02:52:08;33.58;;;21.45;;
5483;SDS011;2764;48.794;8.326;2023-01-25T02:53:11;32.15;;;22.83;;
5483;SDS011;2764;48.794;8.326;2023-01-25T02:54:17;34.65;;;21.52;;
5483;SDS011;2764;48.794;8.326;2023-01-25T02:55:20;35.67;;;23.15;;
5483;SDS011;2764;48.794;8.326;2023-01-25T02:56:21;33.20;;;22.77;;
5483;SDS011;2764;48.794;8.326;2023-01-25T02:57:24;38.25;;;22.33;;
5483;SDS011;2764;48.794;8.326;2023-01-25T02:58:26;32.13;;;22.45;;
5483;SDS011;2764;48.794;8.326;2023-01-25T02:59:28;31.95;;;21.90;;
5483;SDS011;2764;48.794;8.326;2023-01-25T03:00:30;31.00;;;22.10;;
5483;SDS011;2764;48.794;8.326;2023-01-25T03:01:35;36.53;;;23.85;;
5483;SDS011;2764;48.794;8.326;2023-01-25T03:02:38;40.53;;;23.95;;
5483;SDS011;2764;48.794;8.326;2023-01-25T03:03:40;37.50;;;23.75;;
5483;SDS011;2764;48.794;8.326;2023-01-25T03:04:42;35.38;;;24.30;;
5483;SDS011;2764;48.794;8.326;2023-01-25T03:05:44;34.10;;;22.98;;
5483;SDS011;2764;48.794;8.326;2023-01-25T03:06:46;36.20;;;25.40;;
5483;SDS011;2764;48.794;8.326;2023-01-25T03:07:48;36.65;;;23.80;;
5483;SDS011;2764;48.794;8.326;2023-01-25T03:08:50;35.33;;;24.17;;
5483;SDS011;2764;48.794;8.326;2023-01-25T03:09:52;36.67;;;22.73;;
5483;SDS011;2764;48.794;8.326;2023-01-25T03:10:57;36.78;;;23.23;;
5483;SDS011;2764;48.794;8.326;2023-01-25T03:12:00;34.88;;;23.10;;
5483;SDS011;2764;48.794;8.326;2023-01-25T03:13:02;35.60;;;23.65;;
5483;SDS011;2764;48.794;8.326;2023-01-25T03:14:04;34.15;;;23.10;;
5483;SDS011;2764;48.794;8.326;2023-01-25T03:15:06;39.42;;;25.52;;
5483;SDS011;2764;48.794;8.326;2023-01-25T03:16:10;40.65;;;25.08;;
5483;SDS011;2764;48.794;8.326;2023-01-25T03:17:13;38.67;;;24.13;;
5483;SDS011;2764;48.794;8.326;2023-01-25T03:18:15;39.55;;;24.40;;
5483;SDS011;2764;48.794;8.326;2023-01-25T03:19:17;37.88;;;23.42;;
5483;SDS011;2764;48.794;8.326;2023-01-25T03:20:19;34.20;;;23.52;;
5483;SDS011;2764;48.794;8.326;2023-01-25T03:21:21;38.92;;;25.70;;
5483;SDS011;2764;48.794;8.326;2023-01-25T03:22:24;38.60;;;24.60;;
5483;SDS011;2764;48.794;8.326;2023-01-25T03:23:26;37.90;;;24.88;;
5483;SDS011;2764;48.794;8.326;2023-01-25T03:24:28;40.45;;;25.60;;
5483;SDS011;2764;48.794;8.326;2023-01-25T03:25:30;42.33;;;25.90;;
5483;SDS011;2764;48.794;8.326;2023-01-25T03:26:32;40.28;;;26.35;;
5483;SDS011;2764;48.794;8.326;2023-01-25T03:27:54;37.65;;;24.35;;
5483;SDS011;2764;48.794;8.326;2023-01-25T03:28:56;41.22;;;26.02;;
5483;SDS011;2764;48.794;8.326;2023-01-25T03:29:58;39.50;;;25.27;;
5483;SDS011;2764;48.794;8.326;2023-01-25T03:31:00;39.75;;;26.30;;
5483;SDS011;2764;48.794;8.326;2023-01-25T03:32:02;41.55;;;26.08;;
5483;SDS011;2764;48.794;8.326;2023-01-25T03:33:04;39.38;;;25.08;;
5483;SDS011;2764;48.794;8.326;2023-01-25T03:34:09;38.95;;;23.95;;
5483;SDS011;2764;48.794;8.326;2023-01-25T03:35:11;42.28;;;27.05;;
5483;SDS011;2764;48.794;8.326;2023-01-25T03:36:13;42.95;;;27.17;;
5483;SDS011;2764;48.794;8.326;2023-01-25T03:37:15;39.38;;;26.10;;
5483;SDS011;2764;48.794;8.326;2023-01-25T03:38:17;38.47;;;26.17;;
5483;SDS011;2764;48.794;8.326;2023-01-25T03:39:21;38.60;;;24.38;;
5483;SDS011;2764;48.794;8.326;2023-01-25T03:40:23;39.53;;;25.77;;
5483;SDS011;2764;48.794;8.326;2023-01-25T03:41:25;39.75;;;25.48;;
5483;SDS011;2764;48.794;8.326;2023-01-25T03:42:27;38.70;;;25.90;;
5483;SDS011;2764;48.794;8.326;2023-01-25T03:43:29;37.53;;;24.50;;
5483;SDS011;2764;48.794;8.326;2023-01-25T03:44:31;36.42;;;24.02;;
5483;SDS011;2764;48.794;8.326;2023-01-25T03:45:33;38.67;;;24.77;;
5483;SDS011;2764;48.794;8.326;2023-01-25T03:46:36;34.80;;;23.45;;
5483;SDS011;2764;48.794;8.326;2023-01-25T03:47:41;32.83;;;23.48;;
5483;SDS011;2764;48.794;8.326;2023-01-25T03:48:43;33.88;;;21.70;;
5483;SDS011;2764;48.794;8.326;2023-01-25T03:49:45;36.58;;;24.63;;
5483;SDS011;2764;48.794;8.326;2023-01-25T03:50:48;36.78;;;23.48;;
5483;SDS011;2764;48.794;8.326;2023-01-25T03:51:55;35.03;;;23.60;;
5483;SDS011;2764;48.794;8.326;2023-01-25T03:52:58;37.33;;;22.35;;
5483;SDS011;2764;48.794;8.326;2023-01-25T03:54:06;39.28;;;23.60;;
5483;SDS011;2764;48.794;8.326;2023-01-25T03:55:08;33.75;;;22.10;;
5483;SDS011;2764;48.794;8.326;2023-01-25T03:56:11;35.15;;;22.95;;
5483;SDS011;2764;48.794;8.326;2023-01-25T03:57:18;36.13;;;23.30;;
5483;SDS011;2764;48.794;8.326;2023-01-25T03:58:19;37.65;;;23.85;;
5483;SDS011;2764;48.794;8.326;2023-01-25T03:59:23;45.28;;;26.63;;
5483;SDS011;2764;48.794;8.326;2023-01-25T04:00:25;39.00;;;25.65;;
5483;SDS011;2764;48.794;8.326;2023-01-25T04:01:27;42.17;;;25.75;;
5483;SDS011;2764;48.794;8.326;2023-01-25T04:02:29;37.45;;;23.90;;
5483;SDS011;2764;48.794;8.326;2023-01-25T04:03:32;38.65;;;24.98;;
5483;SDS011;2764;48.794;8.326;2023-01-25T04:04:34;38.05;;;24.60;;
5483;SDS011;2764;48.794;8.326;2023-01-25T04:05:36;41.47;;;25.95;;
5483;SDS011;2764;48.794;8.326;2023-01-25T04:06:39;38.70;;;25.40;;
5483;SDS011;2764;48.794;8.326;2023-01-25T04:07:41;43.05;;;26.05;;
5483;SDS011;2764;48.794;8.326;2023-01-25T04:08:43;41.83;;;26.25;;
5483;SDS011;2764;48.794;8.326;2023-01-25T04:09:44;39.10;;;25.15;;
5483;SDS011;2764;48.794;8.326;2023-01-25T04:10:53;41.08;;;25.63;;
5483;SDS011;2764;48.794;8.326;2023-01-25T04:11:56;41.55;;;25.10;;
5483;SDS011;2764;48.794;8.326;2023-01-25T04:12:58;39.40;;;25.63;;
5483;SDS011;2764;48.794;8.326;2023-01-25T04:14:01;49.65;;;26.58;;
5483;SDS011;2764;48.794;8.326;2023-01-25T04:15:03;45.15;;;25.40;;
5483;SDS011;2764;48.794;8.326;2023-01-25T04:16:07;39.33;;;25.55;;
5483;SDS011;2764;48.794;8.326;2023-01-25T04:17:12;42.67;;;25.45;;
5483;SDS011;2764;48.794;8.326;2023-01-25T04:18:14;42.95;;;26.40;;
5483;SDS011;2764;48.794;8.326;2023-01-25T04:19:16;44.72;;;28.67;;
5483;SDS011;2764;48.794;8.326;2023-01-25T04:20:18;39.22;;;25.50;;
5483;SDS011;2764;48.794;8.326;2023-01-25T04:21:20;42.70;;;26.05;;
5483;SDS011;2764;48.794;8.326;2023-01-25T04:22:22;43.25;;;24.85;;
5483;SDS011;2764;48.794;8.326;2023-01-25T04:23:25;39.45;;;25.10;;
5483;SDS011;2764;48.794;8.326;2023-01-25T04:24:27;43.47;;;26.80;;
5483;SDS011;2764;48.794;8.326;2023-01-25T04:25:29;45.55;;;26.42;;
5483;SDS011;2764;48.794;8.326;2023-01-25T04:26:31;44.28;;;25.90;;
5483;SDS011;2764;48.794;8.326;2023-01-25T04:27:34;49.70;;;27.30;;
5483;SDS011;2764;48.794;8.326;2023-01-25T04:28:36;43.13;;;26.45;;
5483;SDS011;2764;48.794;8.326;2023-01-25T04:29:39;41.65;;;27.00;;
5483;SDS011;2764;48.794;8.326;2023-01-25T04:30:42;44.85;;;26.00;;
5483;SDS011;2764;48.794;8.326;2023-01-25T04:31:44;40.35;;;26.48;;
5483;SDS011;2764;48.794;8.326;2023-01-25T04:32:47;48.33;;;28.30;;
5483;SDS011;2764;48.794;8.326;2023-01-25T04:33:50;40.75;;;26.80;;
5483;SDS011;2764;48.794;8.326;2023-01-25T04:34:52;44.53;;;27.25;;
5483;SDS011;2764;48.794;8.326;2023-01-25T04:35:54;42.95;;;27.52;;
5483;SDS011;2764;48.794;8.326;2023-01-25T04:36:56;44.00;;;26.20;;
5483;SDS011;2764;48.794;8.326;2023-01-25T04:37:58;39.92;;;25.77;;
5483;SDS011;2764;48.794;8.326;2023-01-25T04:39:01;47.15;;;27.60;;
5483;SDS011;2764;48.794;8.326;2023-01-25T04:40:05;42.88;;;26.77;;
5483;SDS011;2764;48.794;8.326;2023-01-25T04:41:08;39.97;;;26.33;;
5483;SDS011;2764;48.794;8.326;2023-01-25T04:42:10;39.75;;;24.15;;
5483;SDS011;2764;48.794;8.326;2023-01-25T04:43:12;41.35;;;25.45;;
5483;SDS011;2764;48.794;8.326;2023-01-25T04:44:15;41.95;;;25.13;;
5483;SDS011;2764;48.794;8.326;2023-01-25T04:45:17;44.75;;;27.13;;
5483;SDS011;2764;48.794;8.326;2023-01-25T04:46:19;38.00;;;24.60;;
5483;SDS011;2764;48.794;8.326;2023-01-25T04:47:21;46.42;;;27.05;;
5483;SDS011;2764;48.794;8.326;2023-01-25T04:48:24;42.80;;;26.45;;
5483;SDS011;2764;48.794;8.326;2023-01-25T04:49:27;48.22;;;27.85;;
5483;SDS011;2764;48.794;8.326;2023-01-25T04:50:29;48.22;;;26.55;;
5483;SDS011;2764;48.794;8.326;2023-01-25T04:51:31;44.67;;;26.58;;
5483;SDS011;2764;48.794;8.326;2023-01-25T04:52:33;41.28;;;26.35;;
5483;SDS011;2764;48.794;8.326;2023-01-25T04:53:35;41.00;;;25.38;;
5483;SDS011;2764;48.794;8.326;2023-01-25T04:54:37;40.35;;;26.45;;
5483;SDS011;2764;48.794;8.326;2023-01-25T04:55:39;41.40;;;25.20;;
5483;SDS011;2764;48.794;8.326;2023-01-25T04:56:46;41.22;;;24.95;;
5483;SDS011;2764;48.794;8.326;2023-01-25T04:57:48;38.50;;;25.13;;
5483;SDS011;2764;48.794;8.326;2023-01-25T04:58:51;39.97;;;24.92;;
5483;SDS011;2764;48.794;8.326;2023-01-25T04:59:53;42.22;;;23.95;;
5483;SDS011;2764;48.794;8.326;2023-01-25T05:01:02;36.47;;;24.70;;
5483;SDS011;2764;48.794;8.326;2023-01-25T05:02:05;37.83;;;24.90;;
5483;SDS011;2764;48.794;8.326;2023-01-25T05:03:07;37.03;;;23.85;;
5483;SDS011;2764;48.794;8.326;2023-01-25T05:04:09;38.38;;;23.27;;
5483;SDS011;2764;48.794;8.326;2023-01-25T05:05:10;43.45;;;23.38;;
5483;SDS011;2764;48.794;8.326;2023-01-25T05:06:14;36.05;;;23.48;;
5483;SDS011;2764;48.794;8.326;2023-01-25T05:07:16;35.28;;;24.25;;
5483;SDS011;2764;48.794;8.326;2023-01-25T05:08:17;39.75;;;24.33;;
5483;SDS011;2764;48.794;8.326;2023-01-25T05:09:19;38.38;;;22.50;;
5483;SDS011;2764;48.794;8.326;2023-01-25T05:10:22;37.28;;;24.23;;
5483;SDS011;2764;48.794;8.326;2023-01-25T05:11:23;37.83;;;21.92;;
5483;SDS011;2764;48.794;8.326;2023-01-25T05:12:25;35.67;;;22.90;;
5483;SDS011;2764;48.794;8.326;2023-01-25T05:13:27;33.60;;;23.25;;
5483;SDS011;2764;48.794;8.326;2023-01-25T05:14:29;40.15;;;25.30;;
5483;SDS011;2764;48.794;8.326;2023-01-25T05:15:33;37.20;;;23.92;;
5483;SDS011;2764;48.794;8.326;2023-01-25T05:16:35;43.28;;;24.65;;
5483;SDS011;2764;48.794;8.326;2023-01-25T05:17:37;36.60;;;23.88;;
5483;SDS011;2764;48.794;8.326;2023-01-25T05:18:39;39.88;;;23.38;;
5483;SDS011;2764;48.794;8.326;2023-01-25T05:19:49;38.45;;;21.67;;
5483;SDS011;2764;48.794;8.326;2023-01-25T05:20:54;39.10;;;24.00;;
5483;SDS011;2764;48.794;8.326;2023-01-25T05:21:56;40.78;;;26.27;;
5483;SDS011;2764;48.794;8.326;2023-01-25T05:22:58;39.63;;;25.75;;
5483;SDS011;2764;48.794;8.326;2023-01-25T05:24:00;37.28;;;25.00;;
5483;SDS011;2764;48.794;8.326;2023-01-25T05:25:02;35.45;;;23.85;;
5483;SDS011;2764;48.794;8.326;2023-01-25T05:26:06;39.03;;;24.65;;
5483;SDS011;2764;48.794;8.326;2023-01-25T05:27:27;41.63;;;26.23;;
5483;SDS011;2764;48.794;8.326;2023-01-25T05:28:29;39.55;;;25.30;;
5483;SDS011;2764;48.794;8.326;2023-01-25T05:29:32;37.47;;;24.05;;
5483;SDS011;2764;48.794;8.326;2023-01-25T05:30:38;40.63;;;24.17;;
5483;SDS011;2764;48.794;8.326;2023-01-25T05:31:39;33.45;;;22.55;;
5483;SDS011;2764;48.794;8.326;2023-01-25T05:32:41;38.92;;;23.48;;
5483;SDS011;2764;48.794;8.326;2023-01-25T05:33:43;36.90;;;22.80;;
5483;SDS011;2764;48.794;8.326;2023-01-25T05:34:45;33.53;;;22.40;;
5483;SDS011;2764;48.794;8.326;2023-01-25T05:35:47;34.95;;;22.85;;
5483;SDS011;2764;48.794;8.326;2023-01-25T05:36:48;38.47;;;23.80;;
5483;SDS011;2764;48.794;8.326;2023-01-25T05:37:54;35.40;;;23.75;;
5483;SDS011;2764;48.794;8.326;2023-01-25T05:38:58;43.33;;;25.80;;
5483;SDS011;2764;48.794;8.326;2023-01-25T05:40:01;37.33;;;23.92;;
5483;SDS011;2764;48.794;8.326;2023-01-25T05:41:04;39.17;;;24.75;;
5483;SDS011;2764;48.794;8.326;2023-01-25T05:42:10;36.17;;;24.00;;
5483;SDS011;2764;48.794;8.326;2023-01-25T05:43:13;38.75;;;23.60;;
5483;SDS011;2764;48.794;8.326;2023-01-25T05:44:15;34.25;;;22.52;;
5483;SDS011;2764;48.794;8.326;2023-01-25T05:45:18;36.95;;;23.10;;
5483;SDS011;2764;48.794;8.326;2023-01-25T05:46:20;41.08;;;22.35;;
5483;SDS011;2764;48.794;8.326;2023-01-25T05:47:21;39.28;;;23.42;;
5483;SDS011;2764;48.794;8.326;2023-01-25T05:48:23;36.63;;;24.35;;
5483;SDS011;2764;48.794;8.326;2023-01-25T05:49:25;37.25;;;23.25;;
5483;SDS011;2764;48.794;8.326;2023-01-25T05:50:27;37.75;;;23.35;;
5483;SDS011;2764;48.794;8.326;2023-01-25T05:51:29;41.25;;;24.70;;
5483;SDS011;2764;48.794;8.326;2023-01-25T05:52:31;39.20;;;25.63;;
5483;SDS011;2764;48.794;8.326;2023-01-25T05:53:32;37.38;;;23.27;;
5483;SDS011;2764;48.794;8.326;2023-01-25T05:54:34;45.67;;;27.27;;
5483;SDS011;2764;48.794;8.326;2023-01-25T05:55:36;48.15;;;26.50;;
5483;SDS011;2764;48.794;8.326;2023-01-25T05:56:38;34.22;;;23.10;;
5483;SDS011;2764;48.794;8.326;2023-01-25T05:57:40;37.42;;;22.70;;
5483;SDS011;2764;48.794;8.326;2023-01-25T05:58:44;37.58;;;23.90;;
5483;SDS011;2764;48.794;8.326;2023-01-25T05:59:46;36.70;;;24.40;;
5483;SDS011;2764;48.794;8.326;2023-01-25T06:00:47;33.65;;;22.83;;
5483;SDS011;2764;48.794;8.326;2023-01-25T06:01:49;39.28;;;24.05;;
5483;SDS011;2764;48.794;8.326;2023-01-25T06:02:53;39.55;;;23.60;;
5483;SDS011;2764;48.794;8.326;2023-01-25T06:03:58;39.95;;;24.30;;
5483;SDS011;2764;48.794;8.326;2023-01-25T06:05:01;39.92;;;24.35;;
5483;SDS011;2764;48.794;8.326;2023-01-25T06:06:04;42.47;;;25.50;;
5483;SDS011;2764;48.794;8.326;2023-01-25T06:07:07;45.92;;;25.33;;
5483;SDS011;2764;48.794;8.326;2023-01-25T06:08:09;56.30;;;32.72;;
5483;SDS011;2764;48.794;8.326;2023-01-25T06:09:11;50.15;;;29.63;;
5483;SDS011;2764;48.794;8.326;2023-01-25T06:10:13;45.22;;;29.42;;
5483;SDS011;2764;48.794;8.326;2023-01-25T06:11:16;46.72;;;29.20;;
5483;SDS011;2764;48.794;8.326;2023-01-25T06:12:22;45.95;;;27.83;;
5483;SDS011;2764;48.794;8.326;2023-01-25T06:13:25;41.65;;;25.23;;
5483;SDS011;2764;48.794;8.326;2023-01-25T06:14:29;39.92;;;23.20;;
5483;SDS011;2764;48.794;8.326;2023-01-25T06:15:31;36.35;;;24.63;;
5483;SDS011;2764;48.794;8.326;2023-01-25T06:16:32;34.95;;;21.42;;
5483;SDS011;2764;48.794;8.326;2023-01-25T06:17:35;30.25;;;19.75;;
5483;SDS011;2764;48.794;8.326;2023-01-25T06:18:37;34.30;;;21.05;;
5483;SDS011;2764;48.794;8.326;2023-01-25T06:19:39;41.45;;;25.65;;
5483;SDS011;2764;48.794;8.326;2023-01-25T06:20:42;47.22;;;27.02;;
5483;SDS011;2764;48.794;8.326;2023-01-25T06:21:46;46.08;;;29.80;;
5483;SDS011;2764;48.794;8.326;2023-01-25T06:22:49;45.80;;;27.40;;
5483;SDS011;2764;48.794;8.326;2023-01-25T06:23:52;39.55;;;25.60;;
5483;SDS011;2764;48.794;8.326;2023-01-25T06:24:54;39.63;;;24.40;;
5483;SDS011;2764;48.794;8.326;2023-01-25T06:26:00;42.78;;;25.70;;
5483;SDS011;2764;48.794;8.326;2023-01-25T06:27:05;36.47;;;23.50;;
5483;SDS011;2764;48.794;8.326;2023-01-25T06:28:07;38.60;;;23.75;;
5483;SDS011;2764;48.794;8.326;2023-01-25T06:29:09;40.95;;;24.63;;
5483;SDS011;2764;48.794;8.326;2023-01-25T06:30:15;37.10;;;23.58;;
5483;SDS011;2764;48.794;8.326;2023-01-25T06:31:19;40.80;;;24.77;;
5483;SDS011;2764;48.794;8.326;2023-01-25T06:32:21;40.67;;;25.02;;
5483;SDS011;2764;48.794;8.326;2023-01-25T06:33:27;38.38;;;23.85;;